createdAt,value
2023-04-17T00:01:06.289Z,7.95
2023-04-17T00:04:10.970Z,6.70
2023-04-17T00:07:15.705Z,7.63
2023-04-17T00:10:18.541Z,8.18
2023-04-17T00:13:21.312Z,8.40
2023-04-17T00:16:24.398Z,7.90
2023-04-17T00:19:27.199Z,7.57
2023-04-17T00:22:31.383Z,7.95
2023-04-17T00:25:34.232Z,8.32
2023-04-17T00:28:37.212Z,8.13
2023-04-17T00:31:40.285Z,7.97
2023-04-17T00:34:43.159Z,8.87
2023-04-17T00:37:48.786Z,8.35
2023-04-17T00:40:54.795Z,8.85
2023-04-17T00:43:57.552Z,8.25
2023-04-17T00:47:00.340Z,7.43
2023-04-17T00:50:04.047Z,7.77
2023-04-17T00:53:08.464Z,7.55
2023-04-17T00:56:11.932Z,7.63
2023-04-17T00:59:18.488Z,7.78
2023-04-17T01:02:21.677Z,7.75
2023-04-17T01:05:25.214Z,7.40
2023-04-17T01:08:30.723Z,7.43
2023-04-17T01:11:33.907Z,8.13
2023-04-17T01:14:36.789Z,8.55
2023-04-17T01:17:39.930Z,8.18
2023-04-17T01:20:43.274Z,8.50
2023-04-17T01:23:52.005Z,8.18
2023-04-17T01:26:56.354Z,8.18
2023-04-17T01:29:59.080Z,7.50
2023-04-17T01:33:02.109Z,8.43
2023-04-17T01:36:05.671Z,7.30
2023-04-17T01:39:08.443Z,7.75
2023-04-17T01:42:12.720Z,8.02
2023-04-17T01:45:15.550Z,8.27
2023-04-17T01:48:18.539Z,8.13
2023-04-17T01:51:21.597Z,7.90
2023-04-17T01:54:24.959Z,8.27
2023-04-17T01:57:29.347Z,8.00
2023-04-17T02:00:32.320Z,7.40
2023-04-17T02:03:35.489Z,8.80
2023-04-17T02:06:38.895Z,7.40
2023-04-17T02:09:41.683Z,7.38
2023-04-17T02:12:46.146Z,8.40
2023-04-17T02:15:49.021Z,7.90
2023-04-17T02:18:53.217Z,8.32
2023-04-17T02:21:56.226Z,8.10
2023-04-17T02:24:59.154Z,7.55
2023-04-17T02:28:03.829Z,8.00
2023-04-17T02:31:08.783Z,8.32
2023-04-17T02:34:12.746Z,8.77
2023-04-17T02:37:15.971Z,7.67
2023-04-17T02:40:18.925Z,8.00
2023-04-17T02:43:23.134Z,8.20
2023-04-17T02:46:25.930Z,8.45
2023-04-17T02:49:28.817Z,8.25
2023-04-17T02:52:32.597Z,8.40
2023-04-17T02:55:35.667Z,8.13
2023-04-17T02:58:39.891Z,9.07
2023-04-17T03:01:42.931Z,7.85
2023-04-17T03:04:45.809Z,9.07
2023-04-17T03:07:48.756Z,7.60
2023-04-17T03:10:51.505Z,8.10
2023-04-17T03:13:55.655Z,8.52
2023-04-17T03:16:58.455Z,8.15
2023-04-17T03:20:01.360Z,8.48
2023-04-17T03:23:04.096Z,8.10
2023-04-17T03:26:06.874Z,7.82
2023-04-17T03:29:11.393Z,8.95
2023-04-17T03:32:14.304Z,7.70
2023-04-17T03:35:17.210Z,8.25
2023-04-17T03:38:20.205Z,8.23
2023-04-17T03:41:22.949Z,8.07
2023-04-17T03:44:27.160Z,7.95
2023-04-17T03:47:30.523Z,7.93
2023-04-17T03:50:33.448Z,8.68
2023-04-17T03:53:36.213Z,7.80
2023-04-17T03:56:38.962Z,7.90
2023-04-17T03:59:43.199Z,8.32
2023-04-17T04:02:46.404Z,7.38
2023-04-17T04:05:49.429Z,8.23
2023-04-17T04:08:52.599Z,7.87
2023-04-17T04:11:55.627Z,8.07
2023-04-17T04:15:00.202Z,8.52
2023-04-17T04:18:03.086Z,8.50
2023-04-17T04:21:06.247Z,8.80
2023-04-17T04:24:10.055Z,8.87
2023-04-17T04:27:12.975Z,8.27
2023-04-17T04:30:17.863Z,9.13
2023-04-17T04:33:21.552Z,10.35
2023-04-17T04:36:25.112Z,9.57
2023-04-17T04:39:29.847Z,8.90
2023-04-17T04:42:32.963Z,7.90
2023-04-17T04:45:37.282Z,9.40
2023-04-17T04:48:42.053Z,9.65
2023-04-17T04:51:45.951Z,9.38
2023-04-17T04:54:48.728Z,9.07
2023-04-17T04:57:53.537Z,9.88
2023-04-17T05:00:57.789Z,10.68
2023-04-17T05:04:01.145Z,10.45
2023-04-17T05:07:05.112Z,11.07
2023-04-17T05:10:08.851Z,9.50
2023-04-17T05:13:11.658Z,10.38
2023-04-17T05:16:15.823Z,11.18
2023-04-17T05:19:18.654Z,11.10
2023-04-17T05:22:21.712Z,11.27
2023-04-17T05:25:24.492Z,11.17
2023-04-17T05:28:29.654Z,12.10
2023-04-17T05:31:33.861Z,11.50
2023-04-17T05:34:36.818Z,11.40
2023-04-17T05:37:39.730Z,12.63
2023-04-17T05:40:42.459Z,11.88
2023-04-17T05:43:45.442Z,11.88
2023-04-17T05:46:49.517Z,11.83
2023-04-17T05:49:57.449Z,13.43
2023-04-17T05:53:00.226Z,12.98
2023-04-17T05:56:04.077Z,12.95
2023-04-17T05:59:07.017Z,12.45
2023-04-17T06:02:11.538Z,12.37
2023-04-17T06:05:14.568Z,11.80
2023-04-17T06:08:17.623Z,13.07
2023-04-17T06:11:20.328Z,12.52
2023-04-17T06:14:23.147Z,12.60
2023-04-17T06:17:27.306Z,13.00
2023-04-17T06:20:30.058Z,13.40
2023-04-17T06:23:32.971Z,13.00
2023-04-17T06:26:35.737Z,11.55
2023-04-17T06:29:38.749Z,12.55
2023-04-17T06:32:44.301Z,12.13
2023-04-17T06:35:47.201Z,13.25
2023-04-17T06:38:50.221Z,12.55
2023-04-17T06:41:53.041Z,12.32
2023-04-17T06:44:56.210Z,13.40
2023-04-17T06:48:00.440Z,12.47
2023-04-17T06:51:03.411Z,12.38
2023-04-17T06:54:06.250Z,13.43
2023-04-17T06:57:10.792Z,12.73
2023-04-17T07:00:14.838Z,12.38
2023-04-17T07:03:19.049Z,11.97
2023-04-17T07:06:23.306Z,10.95
2023-04-17T07:09:27.261Z,13.00
2023-04-17T07:12:30.005Z,12.27
2023-04-17T07:15:32.808Z,12.35
2023-04-17T07:18:36.974Z,11.67
2023-04-17T07:21:39.828Z,12.27
2023-04-17T07:24:42.671Z,12.13
2023-04-17T07:27:45.386Z,12.13
2023-04-17T07:30:48.124Z,11.60
2023-04-17T07:33:52.253Z,11.05
2023-04-17T07:36:56.721Z,12.10
2023-04-17T07:39:59.439Z,12.10
2023-04-17T07:43:02.274Z,10.53
2023-04-17T07:46:05.341Z,11.95
2023-04-17T07:49:12.202Z,11.02
2023-04-17T07:52:17.776Z,11.07
2023-04-17T07:55:20.636Z,10.13
2023-04-17T07:58:24.184Z,11.13
2023-04-17T08:01:27.766Z,11.70
2023-04-17T08:04:33.009Z,11.77
2023-04-17T08:07:36.552Z,11.52
2023-04-17T08:10:39.274Z,11.13
2023-04-17T08:13:42.204Z,10.60
2023-04-17T08:16:45.146Z,11.27
2023-04-17T08:19:50.253Z,11.07
2023-04-17T08:22:53.157Z,10.35
2023-04-17T08:25:55.899Z,10.50
2023-04-17T08:29:01.501Z,10.13
2023-04-17T08:32:13.389Z,9.57
2023-04-17T08:35:19.282Z,10.35
2023-04-17T08:38:22.113Z,9.60
2023-04-17T08:41:29.377Z,9.50
2023-04-17T08:44:32.199Z,9.57
2023-04-17T08:47:35.623Z,9.70
2023-04-17T08:50:41.114Z,8.95
2023-04-17T08:53:43.953Z,9.80
2023-04-17T08:56:46.699Z,9.03
2023-04-17T08:59:49.437Z,9.27
2023-04-17T09:02:56.863Z,8.25
2023-04-17T09:06:01.244Z,9.30
2023-04-17T09:09:04.512Z,10.38
2023-04-17T09:12:10.376Z,9.57
2023-04-17T09:15:17.377Z,8.77
2023-04-17T09:18:25.749Z,9.05
2023-04-17T09:21:29.977Z,8.85
2023-04-17T09:24:37.675Z,9.00
2023-04-17T09:27:40.661Z,8.80
2023-04-17T09:30:43.616Z,7.63
2023-04-17T09:33:57.563Z,8.93
2023-04-17T09:37:01.734Z,8.45
2023-04-17T09:40:08.049Z,8.88
2023-04-17T09:43:11.650Z,9.07
2023-04-17T09:46:31.184Z,8.80
2023-04-17T09:49:40.618Z,8.43
2023-04-17T09:52:45.034Z,8.05
2023-04-17T09:55:49.223Z,8.82
2023-04-17T09:58:54.329Z,8.10
2023-04-17T10:01:57.233Z,8.47
2023-04-17T10:05:01.076Z,8.18
2023-04-17T10:08:05.771Z,8.45
2023-04-17T10:11:09.486Z,8.40
2023-04-17T10:14:18.116Z,7.83
2023-04-17T10:17:24.529Z,8.73
2023-04-17T10:20:35.500Z,8.68
2023-04-17T10:23:41.082Z,8.80
2023-04-17T10:26:43.947Z,8.48
2023-04-17T10:29:56.920Z,7.77
2023-04-17T10:33:22.770Z,7.83
2023-04-17T10:36:58.640Z,8.43
2023-04-17T10:40:03.754Z,9.05
2023-04-17T10:43:12.327Z,8.20
2023-04-17T10:46:16.241Z,8.17
2023-04-17T10:49:21.123Z,7.97
2023-04-17T10:52:40.808Z,8.30
2023-04-17T10:55:50.661Z,8.52
2023-04-17T10:58:58.824Z,8.75
2023-04-17T11:02:04.620Z,8.40
2023-04-17T11:05:08.541Z,7.70
2023-04-17T11:08:12.205Z,8.45
2023-04-17T11:11:23.577Z,8.68
2023-04-17T11:14:42.587Z,7.70
2023-04-17T11:17:49.326Z,8.53
2023-04-17T11:20:53.513Z,9.03
2023-04-17T11:23:56.362Z,7.50
2023-04-17T11:27:01.784Z,9.07
2023-04-17T11:30:04.888Z,8.90
2023-04-17T11:33:09.163Z,8.93
2023-04-17T11:36:12.228Z,7.47
2023-04-17T11:39:16.092Z,8.38
2023-04-17T11:42:28.092Z,8.18
2023-04-17T11:45:32.436Z,8.32
2023-04-17T11:48:35.958Z,8.90
2023-04-17T11:51:38.826Z,8.40
2023-04-17T11:54:41.576Z,8.18
2023-04-17T11:57:45.687Z,8.30
2023-04-17T12:01:05.433Z,8.20
2023-04-17T12:04:21.711Z,7.87
2023-04-17T12:07:25.569Z,9.10
2023-04-17T12:10:40.741Z,7.97
2023-04-17T12:13:44.929Z,8.20
2023-04-17T12:16:50.213Z,7.82
2023-04-17T12:19:53.165Z,8.57
2023-04-17T12:22:55.881Z,7.87
2023-04-17T12:25:58.706Z,8.32
2023-04-17T12:29:03.423Z,8.88
2023-04-17T12:32:06.647Z,8.80
2023-04-17T12:35:10.344Z,9.00
2023-04-17T12:38:13.759Z,9.17
2023-04-17T12:41:16.644Z,9.25
2023-04-17T12:44:20.695Z,9.73
2023-04-17T12:47:23.545Z,10.10
2023-04-17T12:50:26.379Z,10.20
2023-04-17T12:53:29.921Z,9.80
2023-04-17T12:56:32.966Z,10.55
2023-04-17T12:59:37.012Z,10.15
2023-04-17T13:02:39.875Z,10.15
2023-04-17T13:05:42.997Z,10.47
2023-04-17T13:08:45.858Z,9.87
2023-04-17T13:11:48.729Z,10.63
2023-04-17T13:14:52.999Z,10.40
2023-04-17T13:17:55.972Z,9.70
2023-04-17T13:20:58.871Z,10.00
2023-04-17T13:24:01.598Z,9.17
2023-04-17T13:27:05.122Z,7.82
2023-04-17T13:30:10.802Z,8.85
2023-04-17T13:33:13.500Z,8.80
2023-04-17T13:39:36.793Z,8.53
2023-04-17T13:42:39.679Z,9.77
2023-04-17T13:45:43.758Z,9.50
2023-04-17T13:48:46.514Z,9.50
2023-04-17T13:51:49.333Z,9.60
2023-04-17T13:54:51.988Z,9.23
2023-04-17T13:57:55.082Z,9.68
2023-04-17T14:00:59.163Z,10.75
2023-04-17T14:04:02.130Z,11.02
2023-04-17T14:07:05.465Z,10.13
2023-04-17T14:10:09.896Z,9.87
2023-04-17T14:13:12.693Z,9.70
2023-04-17T14:16:18.670Z,10.00
2023-04-17T14:19:21.581Z,9.05
2023-04-17T14:22:24.416Z,8.87
2023-04-17T14:25:27.199Z,8.27
2023-04-17T14:28:30.028Z,9.88
2023-04-17T14:31:34.260Z,8.55
2023-04-17T14:34:37.208Z,9.35
2023-04-17T14:37:39.915Z,8.90
2023-04-17T14:40:42.661Z,9.10
2023-04-17T14:43:45.919Z,9.38
2023-04-17T14:46:50.473Z,8.73
2023-04-17T14:49:53.284Z,8.65
2023-04-17T14:52:56.776Z,7.67
2023-04-17T14:56:00.250Z,8.60
2023-04-17T14:59:03.104Z,8.45
2023-04-17T15:02:07.495Z,8.40
2023-04-17T15:05:11.128Z,8.85
2023-04-17T15:08:13.825Z,8.40
2023-04-17T15:11:16.980Z,9.27
2023-04-17T15:14:20.221Z,8.88
2023-04-17T15:17:24.308Z,9.23
2023-04-17T15:20:28.525Z,8.15
2023-04-17T15:23:31.406Z,9.57
2023-04-17T15:26:34.372Z,8.03
2023-04-17T15:29:37.119Z,8.23
2023-04-17T15:32:41.691Z,7.53
2023-04-17T15:35:44.809Z,7.60
2023-04-17T15:38:47.653Z,8.07
2023-04-17T15:41:50.850Z,7.50
2023-04-17T15:44:55.534Z,8.20
2023-04-17T15:48:00.840Z,7.25
2023-04-17T15:51:04.335Z,7.75
2023-04-17T15:54:07.314Z,7.80
2023-04-17T15:57:10.070Z,6.90
2023-04-17T16:00:14.076Z,6.93
2023-04-17T16:03:18.398Z,6.77
2023-04-17T16:06:21.574Z,6.37
2023-04-17T16:09:24.828Z,6.75
2023-04-17T16:12:28.165Z,6.53
2023-04-17T16:15:31.870Z,6.50
2023-04-17T16:18:36.430Z,6.00
2023-04-17T16:21:39.611Z,6.40
2023-04-17T16:24:42.402Z,6.03
2023-04-17T16:27:45.196Z,6.07
2023-04-17T16:30:49.152Z,6.22
2023-04-17T16:33:53.428Z,6.13
2023-04-17T16:36:56.282Z,5.97
2023-04-17T16:40:04.315Z,5.97
2023-04-17T16:43:07.572Z,6.55
2023-04-17T16:46:20.733Z,6.68
2023-04-17T16:49:26.928Z,6.80
2023-04-17T16:52:29.924Z,7.27
2023-04-17T16:55:32.757Z,7.18
2023-04-17T16:58:35.527Z,7.43
2023-04-17T17:01:38.370Z,7.40
2023-04-17T17:04:42.611Z,7.87
2023-04-17T17:07:45.579Z,7.70
2023-04-17T17:10:49.820Z,7.10
2023-04-17T17:13:54.027Z,7.07
2023-04-17T17:16:56.811Z,7.10
2023-04-17T17:20:00.991Z,8.10
2023-04-17T17:23:03.835Z,6.77
2023-04-17T17:26:07.125Z,6.88
2023-04-17T17:29:09.814Z,7.32
2023-04-17T17:32:14.186Z,7.45
2023-04-17T17:35:18.351Z,7.47
2023-04-17T17:38:21.076Z,7.03
2023-04-17T17:41:24.040Z,7.63
2023-04-17T17:44:26.715Z,8.65
2023-04-17T17:47:29.821Z,8.00
2023-04-17T17:50:33.960Z,8.90
2023-04-17T17:53:36.770Z,8.70
2023-04-17T17:56:39.605Z,7.68
2023-04-17T17:59:42.327Z,8.05
2023-04-17T18:02:45.268Z,8.50
2023-04-17T18:05:49.604Z,7.77
2023-04-17T18:08:52.884Z,8.10
2023-04-17T18:11:55.901Z,8.27
2023-04-17T18:14:58.604Z,8.70
2023-04-17T18:18:01.592Z,8.68
2023-04-17T18:21:08.295Z,8.53
2023-04-17T18:24:11.140Z,9.23
2023-04-17T18:27:14.195Z,8.60
2023-04-17T18:30:17.219Z,9.90
2023-04-17T18:33:20.308Z,8.65
2023-04-17T18:36:24.387Z,9.03
2023-04-17T18:39:27.207Z,10.13
2023-04-17T18:42:29.913Z,9.13
2023-04-17T18:45:32.634Z,8.30
2023-04-17T18:48:35.525Z,9.38
2023-04-17T18:51:39.576Z,9.57
2023-04-17T18:54:42.321Z,9.07
2023-04-17T18:57:45.076Z,9.80
2023-04-17T19:00:47.827Z,9.77
2023-04-17T19:03:51.161Z,8.50
2023-04-17T19:06:55.310Z,9.50
2023-04-17T19:09:58.043Z,10.23
2023-04-17T19:13:00.738Z,10.07
2023-04-17T19:16:03.668Z,10.52
2023-04-17T19:19:06.652Z,9.52
2023-04-17T19:22:10.765Z,9.47
2023-04-17T19:25:13.680Z,9.13
2023-04-17T19:28:16.436Z,9.32
2023-04-17T19:31:19.303Z,9.98
2023-04-17T19:34:22.133Z,9.95
2023-04-17T19:37:26.449Z,9.70
2023-04-17T19:40:29.480Z,10.07
2023-04-17T19:43:32.185Z,10.00
2023-04-17T19:46:35.071Z,10.20
2023-04-17T19:49:37.752Z,11.15
2023-04-17T19:52:43.226Z,9.90
2023-04-17T19:55:45.925Z,10.17
2023-04-17T19:58:48.728Z,9.68
2023-04-17T20:01:52.216Z,9.90
2023-04-17T20:04:54.956Z,9.95
2023-04-17T20:07:59.306Z,9.90
2023-04-17T20:11:02.052Z,10.57
2023-04-17T20:14:05.606Z,9.43
2023-04-17T20:17:08.525Z,9.52
2023-04-17T20:20:12.738Z,9.95
2023-04-17T20:23:16.949Z,9.87
2023-04-17T20:26:19.645Z,9.87
2023-04-17T20:29:23.196Z,10.30
2023-04-17T20:32:25.957Z,9.70
2023-04-17T20:35:28.886Z,9.18
2023-04-17T20:38:33.029Z,10.30
2023-04-17T20:41:37.290Z,9.90
2023-04-17T20:44:41.812Z,9.93
2023-04-17T20:50:51.007Z,10.07
2023-04-17T20:53:55.752Z,9.90
2023-04-17T20:56:58.594Z,9.25
2023-04-17T21:00:01.337Z,10.10
2023-04-17T21:03:04.412Z,10.00
2023-04-17T21:06:07.593Z,9.70
2023-04-17T21:09:14.225Z,10.17
2023-04-17T21:12:17.049Z,10.65
2023-04-17T21:15:19.878Z,8.95
2023-04-17T21:18:22.874Z,10.02
2023-04-17T21:21:26.231Z,9.97
2023-04-17T21:24:30.601Z,10.17
2023-04-17T21:27:33.478Z,9.63
2023-04-17T21:30:37.077Z,9.52
2023-04-17T21:33:40.181Z,10.23
2023-04-17T21:36:42.868Z,10.03
2023-04-17T21:39:47.086Z,10.07
2023-04-17T21:42:49.749Z,10.52
2023-04-17T21:45:52.707Z,10.73
2023-04-17T21:48:56.022Z,9.02
2023-04-17T21:51:58.720Z,9.50
2023-04-17T21:55:05.679Z,10.27
2023-04-17T21:58:08.590Z,10.13
2023-04-17T22:01:11.638Z,9.73
2023-04-17T22:04:14.782Z,9.52
2023-04-17T22:07:18.591Z,9.60
2023-04-17T22:10:23.141Z,10.03
2023-04-17T22:13:26.275Z,9.77
2023-04-17T22:16:29.293Z,10.00
2023-04-17T22:19:32.242Z,10.13
2023-04-17T22:22:35.195Z,10.10
2023-04-17T22:25:39.455Z,9.43
2023-04-17T22:28:42.470Z,9.47
2023-04-17T22:31:45.316Z,10.05
2023-04-17T22:34:49.414Z,9.52
2023-04-17T22:37:52.369Z,9.25
2023-04-17T22:40:57.776Z,9.87
2023-04-17T22:44:04.528Z,8.53
2023-04-17T22:47:07.479Z,10.18
2023-04-17T22:50:11.900Z,9.50
2023-04-17T22:53:15.047Z,8.40
2023-04-17T22:56:19.399Z,8.37
2023-04-17T22:59:22.409Z,9.77
2023-04-17T23:02:26.033Z,9.18
2023-04-17T23:05:28.971Z,9.38
2023-04-17T23:08:32.301Z,8.80
2023-04-17T23:11:37.011Z,9.30
2023-04-17T23:14:39.938Z,9.10
2023-04-17T23:17:43.198Z,8.95
2023-04-17T23:20:46.511Z,9.05
2023-04-17T23:23:49.449Z,8.43
2023-04-17T23:26:55.178Z,8.90
2023-04-17T23:29:59.048Z,8.77
2023-04-17T23:33:01.927Z,8.48
2023-04-17T23:36:05.152Z,8.50
2023-04-17T23:39:08.094Z,8.45
2023-04-17T23:42:12.486Z,7.97
2023-04-17T23:45:15.598Z,8.90
2023-04-17T23:48:18.733Z,8.18
2023-04-17T23:51:22.139Z,8.73
2023-04-17T23:54:25.458Z,9.05
2023-04-17T23:57:30.948Z,8.93
